createdAt,value
2022-12-29T00:00:12.116Z,26.40
2022-12-29T00:03:00.255Z,24.90
2022-12-29T00:05:28.490Z,24.10
2022-12-29T00:07:56.545Z,24.60
2022-12-29T00:10:24.608Z,23.80
2022-12-29T00:13:11.447Z,23.20
2022-12-29T00:15:39.646Z,22.20
2022-12-29T00:18:08.342Z,28.80
2022-12-29T00:20:56.045Z,28.20
2022-12-29T00:23:43.241Z,28.30
2022-12-29T00:26:36.288Z,32.20
2022-12-29T00:29:23.492Z,30.70
2022-12-29T00:32:10.041Z,23.20
2022-12-29T00:34:56.695Z,26.50
2022-12-29T00:37:44.850Z,31.40
2022-12-29T00:40:31.283Z,32.60
2022-12-29T00:43:17.995Z,34.90
2022-12-29T00:45:46.254Z,27.60
2022-12-29T00:48:14.304Z,28.80
2022-12-29T00:50:42.336Z,29.10
2022-12-29T00:53:10.364Z,37.20
2022-12-29T00:55:39.525Z,24.00
2022-12-29T00:58:07.682Z,26.50
2022-12-29T01:00:35.759Z,24.90
2022-12-29T01:03:04.350Z,28.10
2022-12-29T01:05:36.716Z,25.30
2022-12-29T01:08:05.217Z,30.30
2022-12-29T01:10:33.325Z,30.60
2022-12-29T01:13:01.812Z,25.10
2022-12-29T01:15:29.872Z,25.50
2022-12-29T01:17:57.950Z,27.20
2022-12-29T01:20:26.293Z,30.80
2022-12-29T01:22:54.325Z,31.90
2022-12-29T01:25:22.396Z,35.00
2022-12-29T01:27:50.798Z,37.80
2022-12-29T01:30:18.854Z,30.00
2022-12-29T01:32:46.998Z,30.00
2022-12-29T01:35:15.140Z,26.50
2022-12-29T01:37:43.279Z,28.40
2022-12-29T01:40:12.068Z,34.90
2022-12-29T01:42:40.179Z,31.10
2022-12-29T01:45:13.008Z,28.90
2022-12-29T01:48:04.956Z,30.70
2022-12-29T01:50:47.558Z,29.60
2022-12-29T01:53:34.999Z,31.20
2022-12-29T01:56:08.180Z,25.40
2022-12-29T01:58:42.558Z,28.00
2022-12-29T02:01:11.318Z,23.80
2022-12-29T02:03:39.602Z,22.00
2022-12-29T02:06:17.637Z,24.00
2022-12-29T02:08:48.725Z,26.10
2022-12-29T02:11:17.790Z,27.80
2022-12-29T02:13:45.947Z,23.90
2022-12-29T02:16:38.172Z,28.40
2022-12-29T02:19:06.301Z,28.70
2022-12-29T02:22:02.514Z,27.20
2022-12-29T02:24:39.538Z,25.00
2022-12-29T02:27:41.597Z,27.90
2022-12-29T02:30:46.732Z,25.30
2022-12-29T02:33:22.275Z,26.40
2022-12-29T02:36:02.988Z,32.30
2022-12-29T02:38:40.098Z,27.90
2022-12-29T02:41:30.155Z,29.60
2022-12-29T02:44:21.857Z,29.20
2022-12-29T02:47:01.977Z,29.00
2022-12-29T02:49:40.003Z,28.80
2022-12-29T02:52:15.565Z,31.10
2022-12-29T02:54:43.849Z,32.20
2022-12-29T02:57:24.200Z,31.10
2022-12-29T03:00:03.839Z,26.30
2022-12-29T03:02:38.132Z,29.10
2022-12-29T03:05:12.208Z,30.00
2022-12-29T03:07:49.037Z,29.90
2022-12-29T03:10:51.279Z,29.60
2022-12-29T03:13:47.905Z,33.30
2022-12-29T03:16:24.609Z,34.30
2022-12-29T03:19:01.671Z,29.80
2022-12-29T03:22:01.402Z,31.20
2022-12-29T03:24:33.744Z,32.50
2022-12-29T03:27:07.598Z,29.20
2022-12-29T03:29:42.237Z,26.00
2022-12-29T03:32:13.674Z,28.50
2022-12-29T03:34:42.336Z,30.20
2022-12-29T03:37:18.328Z,26.10
2022-12-29T03:39:46.719Z,23.60
2022-12-29T03:42:19.409Z,26.60
2022-12-29T03:44:47.661Z,30.60
2022-12-29T03:47:16.397Z,25.30
2022-12-29T03:49:45.289Z,27.30
2022-12-29T03:52:13.382Z,30.80
2022-12-29T03:54:42.379Z,27.30
2022-12-29T03:57:12.079Z,25.10
2022-12-29T03:59:40.167Z,24.70
2022-12-29T04:02:08.379Z,27.80
2022-12-29T04:04:36.510Z,28.80
2022-12-29T04:07:04.684Z,27.10
2022-12-29T04:09:32.758Z,27.20
2022-12-29T04:12:00.831Z,27.50
2022-12-29T04:14:29.004Z,29.80
2022-12-29T04:16:57.143Z,25.00
2022-12-29T04:19:25.201Z,28.40
2022-12-29T04:21:53.235Z,26.10
2022-12-29T04:24:21.511Z,25.70
2022-12-29T04:26:49.882Z,26.70
2022-12-29T04:29:18.118Z,21.80
2022-12-29T04:31:46.302Z,24.00
2022-12-29T04:34:14.792Z,24.70
2022-12-29T04:36:42.933Z,25.90
2022-12-29T04:39:11.029Z,21.50
2022-12-29T04:41:39.211Z,22.30
2022-12-29T04:44:07.402Z,25.70
2022-12-29T04:46:35.577Z,26.70
2022-12-29T04:49:09.641Z,27.20
2022-12-29T04:51:37.996Z,22.40
2022-12-29T04:54:06.151Z,27.90
2022-12-29T04:56:34.262Z,23.50
2022-12-29T04:59:02.391Z,26.30
2022-12-29T05:01:30.636Z,23.00
2022-12-29T05:03:58.769Z,24.30
2022-12-29T05:06:26.931Z,27.20
2022-12-29T05:08:54.998Z,25.40
2022-12-29T05:11:23.149Z,24.60
2022-12-29T05:13:51.205Z,24.00
2022-12-29T05:16:19.339Z,26.00
2022-12-29T05:18:47.520Z,26.20
2022-12-29T05:21:15.634Z,24.30
2022-12-29T05:23:43.812Z,28.30
2022-12-29T05:26:11.885Z,26.30
2022-12-29T05:28:40.019Z,24.80
2022-12-29T05:31:08.153Z,22.60
2022-12-29T05:33:36.212Z,26.20
2022-12-29T05:36:09.298Z,28.40
2022-12-29T05:38:37.500Z,22.10
2022-12-29T05:41:05.763Z,24.60
2022-12-29T05:43:33.801Z,24.30
2022-12-29T05:46:02.367Z,20.00
2022-12-29T05:48:34.474Z,29.40
2022-12-29T05:51:06.369Z,25.20
2022-12-29T05:53:34.551Z,26.60
2022-12-29T05:56:02.867Z,24.10
2022-12-29T05:58:31.549Z,26.80
2022-12-29T06:00:59.669Z,30.70
2022-12-29T06:03:27.801Z,28.50
2022-12-29T06:05:55.972Z,25.10
2022-12-29T06:08:24.040Z,30.90
2022-12-29T06:10:52.226Z,22.30
2022-12-29T06:13:20.295Z,24.20
2022-12-29T06:15:50.258Z,25.40
2022-12-29T06:18:20.476Z,21.90
2022-12-29T06:20:48.949Z,24.00
2022-12-29T06:23:17.704Z,28.30
2022-12-29T06:25:47.644Z,24.80
2022-12-29T06:28:15.771Z,28.00
2022-12-29T06:30:48.285Z,24.30
2022-12-29T06:33:17.576Z,27.10
2022-12-29T06:35:47.148Z,21.00
2022-12-29T06:38:15.715Z,24.40
2022-12-29T06:40:46.298Z,21.20
2022-12-29T06:43:14.581Z,20.00
2022-12-29T06:45:42.930Z,19.60
2022-12-29T06:48:11.169Z,22.40
2022-12-29T06:50:39.310Z,20.20
2022-12-29T06:53:07.457Z,22.30
2022-12-29T06:55:35.598Z,23.80
2022-12-29T06:58:03.719Z,24.40
2022-12-29T07:00:31.882Z,28.60
2022-12-29T07:03:00.153Z,24.60
2022-12-29T07:05:28.845Z,23.20
2022-12-29T07:07:56.911Z,25.10
2022-12-29T07:10:25.030Z,26.00
2022-12-29T07:12:53.087Z,25.70
2022-12-29T07:15:21.149Z,31.20
2022-12-29T07:17:50.733Z,25.50
2022-12-29T07:20:24.771Z,47.00
2022-12-29T07:22:54.988Z,25.50
2022-12-29T07:25:23.489Z,28.10
2022-12-29T07:27:51.764Z,27.40
2022-12-29T07:30:19.926Z,28.30
2022-12-29T07:32:48.057Z,25.70
2022-12-29T07:35:16.302Z,26.30
2022-12-29T07:37:45.698Z,26.80
2022-12-29T07:40:14.272Z,31.50
2022-12-29T07:42:42.346Z,28.70
2022-12-29T07:45:11.115Z,28.60
2022-12-29T07:47:39.179Z,29.40
2022-12-29T07:50:07.680Z,30.10
2022-12-29T07:52:35.835Z,27.50
2022-12-29T07:55:04.130Z,25.70
2022-12-29T07:57:32.498Z,30.60
2022-12-29T08:00:00.713Z,25.00
2022-12-29T08:02:29.862Z,33.90
2022-12-29T08:04:58.026Z,29.60
2022-12-29T08:07:26.075Z,30.80
2022-12-29T08:09:54.251Z,27.70
2022-12-29T08:12:22.337Z,27.00
2022-12-29T08:14:50.398Z,31.30
2022-12-29T08:17:18.559Z,29.00
2022-12-29T08:19:46.670Z,29.50
2022-12-29T08:22:15.852Z,27.90
2022-12-29T08:24:43.964Z,28.50
2022-12-29T08:27:17.974Z,25.00
2022-12-29T08:29:48.541Z,28.60
2022-12-29T08:32:16.777Z,29.60
2022-12-29T08:34:47.656Z,25.00
2022-12-29T08:37:15.844Z,27.50
2022-12-29T08:39:43.915Z,30.20
2022-12-29T08:42:12.091Z,26.30
2022-12-29T08:44:40.944Z,34.90
2022-12-29T08:47:11.108Z,26.30
2022-12-29T08:49:39.270Z,27.50
2022-12-29T08:52:09.228Z,29.60
2022-12-29T08:54:37.233Z,36.50
2022-12-29T08:57:05.372Z,28.50
2022-12-29T08:59:33.502Z,24.80
2022-12-29T09:02:02.913Z,31.40
2022-12-29T09:04:31.273Z,22.60
2022-12-29T09:06:59.556Z,27.80
2022-12-29T09:09:27.609Z,25.40
2022-12-29T09:11:55.650Z,26.60
2022-12-29T09:14:24.019Z,30.30
2022-12-29T09:17:11.459Z,37.70
2022-12-29T09:19:39.691Z,31.90
2022-12-29T09:22:07.865Z,35.90
2022-12-29T09:24:35.997Z,31.90
2022-12-29T09:27:04.093Z,32.80
2022-12-29T09:29:32.162Z,29.30
2022-12-29T09:32:00.169Z,27.20
2022-12-29T09:34:28.226Z,32.60
2022-12-29T09:36:57.328Z,40.60
2022-12-29T09:39:25.505Z,30.10
2022-12-29T09:42:01.293Z,33.00
2022-12-29T09:44:48.582Z,27.70
2022-12-29T09:47:19.228Z,30.00
2022-12-29T09:49:56.127Z,30.40
2022-12-29T09:52:30.710Z,32.60
2022-12-29T09:55:10.651Z,31.50
2022-12-29T09:57:46.075Z,38.40
2022-12-29T10:00:21.260Z,35.10
2022-12-29T10:02:52.385Z,36.20
2022-12-29T10:05:24.403Z,35.20
2022-12-29T10:08:05.011Z,34.60
2022-12-29T10:10:41.742Z,40.10
2022-12-29T10:13:24.948Z,33.80
2022-12-29T10:16:06.219Z,35.70
2022-12-29T10:18:46.505Z,30.50
2022-12-29T10:21:17.324Z,24.90
2022-12-29T10:23:52.650Z,27.50
2022-12-29T10:26:26.421Z,24.30
2022-12-29T10:28:59.662Z,23.20
2022-12-29T10:31:36.192Z,22.50
2022-12-29T10:34:16.706Z,24.20
2022-12-29T10:36:49.932Z,27.70
2022-12-29T10:39:25.705Z,23.30
2022-12-29T10:42:16.744Z,29.00
2022-12-29T10:44:44.824Z,25.80
2022-12-29T10:47:36.203Z,22.00
2022-12-29T10:50:04.627Z,25.60
2022-12-29T10:52:34.796Z,23.30
2022-12-29T10:55:35.030Z,23.80
2022-12-29T10:58:08.180Z,34.90
2022-12-29T11:00:36.299Z,24.70
2022-12-29T11:03:10.699Z,23.20
2022-12-29T11:05:41.586Z,26.20
2022-12-29T11:10:43.774Z,26.10
2022-12-29T11:13:17.954Z,24.80
2022-12-29T11:15:47.507Z,26.60
2022-12-29T11:18:19.867Z,24.40
2022-12-29T11:20:49.090Z,21.70
2022-12-29T11:23:26.213Z,17.10
2022-12-29T11:26:15.697Z,17.00
2022-12-29T11:28:48.219Z,18.40
2022-12-29T11:31:22.946Z,19.40
2022-12-29T11:33:51.021Z,19.30
2022-12-29T11:36:23.560Z,19.30
2022-12-29T11:38:54.302Z,17.20
2022-12-29T11:41:28.379Z,22.40
2022-12-29T11:44:03.119Z,20.00
2022-12-29T11:46:53.554Z,21.00
2022-12-29T11:49:25.147Z,19.70
2022-12-29T11:51:58.669Z,17.30
2022-12-29T11:54:32.541Z,17.70
2022-12-29T11:57:12.319Z,20.50
2022-12-29T11:59:50.510Z,16.60
2022-12-29T12:02:21.945Z,17.10
2022-12-29T12:04:55.582Z,16.60
2022-12-29T12:07:41.441Z,18.40
2022-12-29T12:10:26.134Z,18.30
2022-12-29T12:13:05.232Z,18.10
2022-12-29T12:15:45.972Z,15.60
2022-12-29T12:18:19.784Z,17.70
2022-12-29T12:21:02.354Z,18.30
2022-12-29T12:23:54.207Z,17.50
2022-12-29T12:26:46.924Z,14.00
2022-12-29T12:29:23.555Z,18.70
2022-12-29T12:32:02.980Z,16.50
2022-12-29T12:34:39.669Z,17.90
2022-12-29T12:37:20.201Z,18.60
2022-12-29T12:40:11.719Z,16.30
2022-12-29T12:42:54.848Z,17.30
2022-12-29T12:45:36.334Z,15.30
2022-12-29T12:48:51.778Z,18.60
2022-12-29T12:51:42.849Z,17.80
2022-12-29T12:54:10.884Z,19.10
2022-12-29T12:57:03.388Z,15.50
2022-12-29T12:59:43.739Z,15.80
2022-12-29T13:02:22.161Z,14.90
2022-12-29T13:05:26.208Z,15.90
2022-12-29T13:08:04.185Z,16.50
2022-12-29T13:10:39.522Z,15.10
2022-12-29T13:13:28.244Z,16.00
2022-12-29T13:16:07.442Z,20.00
2022-12-29T13:18:46.201Z,17.20
2022-12-29T13:21:32.520Z,16.90
2022-12-29T13:24:06.378Z,13.70
2022-12-29T13:26:46.320Z,14.60
2022-12-29T13:29:22.955Z,15.70
2022-12-29T13:32:12.639Z,15.20
2022-12-29T13:35:00.945Z,14.50
2022-12-29T13:37:32.938Z,13.70
2022-12-29T13:40:14.458Z,22.50
2022-12-29T13:42:44.197Z,14.20
2022-12-29T13:45:18.050Z,14.80
2022-12-29T13:47:59.114Z,19.50
2022-12-29T13:50:29.332Z,15.00
2022-12-29T13:53:20.085Z,17.40
2022-12-29T13:58:25.365Z,15.20
2022-12-29T14:00:57.263Z,18.50
2022-12-29T14:03:45.822Z,15.70
2022-12-29T14:06:29.708Z,16.20
2022-12-29T14:09:04.766Z,20.00
2022-12-29T14:11:42.277Z,15.80
2022-12-29T14:14:15.488Z,19.30
2022-12-29T14:16:44.080Z,16.30
2022-12-29T14:19:35.249Z,17.20
2022-12-29T14:24:35.980Z,19.80
2022-12-29T14:27:14.133Z,20.10
2022-12-29T14:29:42.357Z,18.90
2022-12-29T14:32:26.121Z,21.50
2022-12-29T14:34:56.584Z,20.40
2022-12-29T14:37:28.648Z,24.90
2022-12-29T14:40:16.800Z,21.30
2022-12-29T14:42:46.977Z,22.00
2022-12-29T14:45:14.986Z,26.90
2022-12-29T14:47:48.725Z,23.10
2022-12-29T14:50:23.532Z,25.60
2022-12-29T14:53:03.019Z,25.90
2022-12-29T14:55:56.024Z,20.00
2022-12-29T14:58:30.316Z,25.60
2022-12-29T15:01:00.166Z,19.30
2022-12-29T15:03:37.553Z,20.10
2022-12-29T15:06:17.988Z,19.00
2022-12-29T15:08:53.737Z,21.20
2022-12-29T15:11:25.033Z,22.90
2022-12-29T15:13:53.471Z,22.60
2022-12-29T15:16:33.939Z,19.40
2022-12-29T15:19:02.152Z,21.70
2022-12-29T15:21:33.837Z,22.50
2022-12-29T15:24:03.494Z,24.10
2022-12-29T15:26:40.623Z,21.10
2022-12-29T15:29:41.092Z,24.90
2022-12-29T15:32:26.759Z,25.20
2022-12-29T15:34:57.875Z,22.40
2022-12-29T15:37:28.852Z,23.20
2022-12-29T15:39:57.429Z,25.30
2022-12-29T15:42:31.942Z,27.70
2022-12-29T15:45:10.148Z,22.50
2022-12-29T15:47:41.038Z,22.50
2022-12-29T15:50:31.394Z,20.50
2022-12-29T15:53:00.493Z,22.80
2022-12-29T15:55:36.546Z,22.10
2022-12-29T15:58:17.698Z,20.00
2022-12-29T16:00:58.084Z,23.40
2022-12-29T16:03:31.113Z,20.50
2022-12-29T16:06:26.272Z,24.90
2022-12-29T16:09:28.171Z,22.40
2022-12-29T16:12:02.242Z,21.80
2022-12-29T16:14:42.145Z,21.80
2022-12-29T16:17:16.927Z,22.70
2022-12-29T16:19:55.266Z,25.20
2022-12-29T16:22:29.116Z,21.20
2022-12-29T16:25:05.039Z,21.80
2022-12-29T16:27:38.717Z,19.40
2022-12-29T16:30:18.856Z,22.50
2022-12-29T16:32:49.292Z,24.10
2022-12-29T16:35:22.249Z,26.70
2022-12-29T16:38:14.668Z,21.30
2022-12-29T16:40:52.876Z,22.50
2022-12-29T16:43:24.945Z,26.20
2022-12-29T16:45:53.138Z,23.30
2022-12-29T16:48:24.709Z,21.50
2022-12-29T16:51:01.865Z,21.10
2022-12-29T16:53:35.522Z,22.40
2022-12-29T16:56:10.456Z,24.80
2022-12-29T16:58:39.662Z,24.10
2022-12-29T17:01:15.761Z,32.50
2022-12-29T17:03:51.771Z,26.70
2022-12-29T17:06:22.865Z,24.40
2022-12-29T17:08:53.058Z,22.80
2022-12-29T17:11:59.426Z,26.80
2022-12-29T17:14:37.111Z,27.90
2022-12-29T17:17:17.888Z,24.80
2022-12-29T17:19:50.702Z,28.20
2022-12-29T17:22:27.918Z,25.10
2022-12-29T17:24:59.806Z,25.30
2022-12-29T17:27:31.226Z,27.80
2022-12-29T17:30:21.723Z,22.30
2022-12-29T17:32:58.382Z,27.70
2022-12-29T17:35:28.398Z,25.20
2022-12-29T17:37:57.152Z,25.80
2022-12-29T17:40:30.007Z,22.00
2022-12-29T17:42:59.933Z,21.90
2022-12-29T17:45:31.361Z,28.00
2022-12-29T17:48:02.022Z,24.90
2022-12-29T17:53:04.185Z,25.10
2022-12-29T17:55:38.147Z,28.30
2022-12-29T17:58:24.936Z,30.70
2022-12-29T18:00:58.829Z,27.50
2022-12-29T18:03:36.335Z,24.60
2022-12-29T18:06:06.783Z,23.60
2022-12-29T18:08:36.873Z,27.20
2022-12-29T18:11:24.326Z,22.00
2022-12-29T18:13:54.353Z,24.50
2022-12-29T18:16:23.825Z,22.80
2022-12-29T18:18:52.662Z,17.60
2022-12-29T18:21:25.045Z,20.50
2022-12-29T18:23:54.092Z,26.70
2022-12-29T18:26:35.826Z,21.00
2022-12-29T18:29:07.663Z,26.70
2022-12-29T18:31:40.718Z,25.90
2022-12-29T18:34:15.222Z,25.00
2022-12-29T18:36:46.515Z,28.70
2022-12-29T18:39:15.322Z,28.80
2022-12-29T18:41:44.129Z,22.50
2022-12-29T18:44:13.929Z,24.10
2022-12-29T18:46:42.793Z,25.30
2022-12-29T18:49:19.114Z,23.30
2022-12-29T18:51:50.127Z,27.30
2022-12-29T18:54:33.265Z,24.80
2022-12-29T18:57:09.690Z,21.10
2022-12-29T18:59:41.361Z,25.60
2022-12-29T19:02:17.915Z,23.50
2022-12-29T19:04:59.714Z,22.70
2022-12-29T19:07:35.209Z,25.20
2022-12-29T19:10:04.340Z,26.90
2022-12-29T19:12:35.222Z,23.90
2022-12-29T19:15:31.142Z,28.90
2022-12-29T19:18:41.808Z,29.90
2022-12-29T19:20:57.440Z,27.40
2022-12-29T19:23:31.283Z,22.50
2022-12-29T19:26:00.133Z,25.80
2022-12-29T19:28:31.895Z,29.40
2022-12-29T19:31:02.569Z,27.70
2022-12-29T19:33:38.621Z,24.40
2022-12-29T19:36:07.563Z,32.00
2022-12-29T19:38:36.337Z,30.60
2022-12-29T19:41:09.581Z,24.60
2022-12-29T19:43:38.392Z,29.90
2022-12-29T19:46:10.931Z,26.60
2022-12-29T19:48:39.857Z,31.40
2022-12-29T19:51:11.771Z,24.60
2022-12-29T19:53:44.251Z,29.20
2022-12-29T19:56:18.841Z,31.60
2022-12-29T19:58:48.032Z,26.80
2022-12-29T20:01:20.450Z,27.40
2022-12-29T20:03:54.172Z,26.70
2022-12-29T20:06:27.191Z,27.50
2022-12-29T20:08:57.285Z,27.50
2022-12-29T20:11:26.349Z,30.40
2022-12-29T20:13:57.979Z,27.80
2022-12-29T20:16:27.211Z,30.70
2022-12-29T20:18:57.393Z,26.70
2022-12-29T20:21:26.286Z,30.80
2022-12-29T20:23:55.049Z,29.70
2022-12-29T20:26:27.415Z,27.30
2022-12-29T20:28:58.271Z,24.00
2022-12-29T20:33:57.481Z,26.40
2022-12-29T20:36:31.517Z,29.40
2022-12-29T20:39:04.919Z,27.30
2022-12-29T20:41:33.975Z,25.90
2022-12-29T20:44:05.356Z,26.30
2022-12-29T20:46:43.039Z,29.40
2022-12-29T20:49:12.634Z,23.60
2022-12-29T20:54:37.132Z,25.30
2022-12-29T20:57:08.300Z,23.60
2022-12-29T20:59:37.412Z,24.90
2022-12-29T21:02:06.898Z,25.10
2022-12-29T21:05:05.472Z,23.60
2022-12-29T21:07:24.542Z,25.90
2022-12-29T21:09:53.278Z,28.20
2022-12-29T21:12:22.076Z,24.50
2022-12-29T21:14:50.760Z,23.90
2022-12-29T21:17:19.522Z,24.80
2022-12-29T21:19:48.845Z,24.70
2022-12-29T21:22:17.587Z,24.90
2022-12-29T21:24:46.275Z,28.90
2022-12-29T21:27:15.049Z,25.30
2022-12-29T21:29:44.888Z,25.80
2022-12-29T21:32:17.165Z,28.10
2022-12-29T21:34:46.989Z,24.50
2022-12-29T21:37:23.404Z,26.70
2022-12-29T21:39:52.246Z,31.10
2022-12-29T21:42:20.640Z,24.30
2022-12-29T21:45:07.286Z,25.50
2022-12-29T21:47:54.014Z,24.70
2022-12-29T21:50:22.271Z,27.20
2022-12-29T21:52:50.497Z,33.60
2022-12-29T21:55:18.561Z,29.20
2022-12-29T21:58:05.037Z,25.50
2022-12-29T22:00:51.662Z,22.80
2022-12-29T22:03:38.416Z,22.90
2022-12-29T22:06:29.455Z,21.80
2022-12-29T22:12:02.323Z,25.90
2022-12-29T22:14:30.379Z,21.60
2022-12-29T22:16:58.691Z,26.60
2022-12-29T22:19:26.798Z,22.20
2022-12-29T22:21:54.839Z,24.80
2022-12-29T22:24:22.817Z,22.40
2022-12-29T22:26:50.899Z,26.60
2022-12-29T22:29:18.990Z,23.70
2022-12-29T22:31:47.064Z,24.80
2022-12-29T22:34:15.119Z,21.80
2022-12-29T22:36:43.246Z,21.00
2022-12-29T22:39:11.300Z,24.40
2022-12-29T22:41:39.302Z,24.10
2022-12-29T22:44:07.487Z,22.10
2022-12-29T22:46:35.579Z,28.00
2022-12-29T22:49:03.976Z,26.00
2022-12-29T22:51:32.024Z,22.90
2022-12-29T22:54:00.087Z,25.60
2022-12-29T22:56:28.295Z,23.30
2022-12-29T22:58:56.404Z,23.40
2022-12-29T23:01:24.679Z,24.60
2022-12-29T23:03:52.901Z,23.20
2022-12-29T23:06:21.107Z,25.50
2022-12-29T23:08:49.292Z,23.30
2022-12-29T23:11:17.454Z,21.40
2022-12-29T23:13:46.285Z,25.30
2022-12-29T23:16:15.827Z,21.50
2022-12-29T23:18:45.593Z,26.50
2022-12-29T23:21:15.338Z,23.50
2022-12-29T23:24:04.190Z,30.90
2022-12-29T23:26:36.928Z,26.20
2022-12-29T23:29:08.387Z,23.70
2022-12-29T23:31:37.569Z,28.70
2022-12-29T23:34:07.388Z,24.70
2022-12-29T23:36:36.104Z,25.80
2022-12-29T23:39:05.212Z,23.60
2022-12-29T23:41:33.332Z,28.00
2022-12-29T23:44:01.472Z,27.30
2022-12-29T23:46:31.509Z,23.20
2022-12-29T23:48:59.645Z,25.20
2022-12-29T23:51:28.002Z,26.30
2022-12-29T23:53:56.113Z,23.60
2022-12-29T23:56:24.526Z,27.80
2022-12-29T23:58:53.164Z,27.50
